Time;durP1;ratioP1;P1;durP2;ratioP2;P2;SDS_P1;SDS_P2;PMS_P1;PMS_P2;Temp;Humidity;BMP_temperature;BMP_pressure;BME280_temperature;BME280_humidity;BME280_pressure;Samples;Min_cycle;Max_cycle;Signal;HPM_P1;HPM_P2
2023/08/26 00:00:09;;;;;;;26.80;22.10;;;19.20;99.90;;;;;;5115049;28;20187;-50
2023/08/26 00:02:35;;;;;;;36.70;27.00;;;19.10;99.90;;;;;;5097134;28;20444;-50
2023/08/26 00:05:00;;;;;;;37.40;26.47;;;19.10;99.90;;;;;;5115138;28;20181;-50
2023/08/26 00:07:26;;;;;;;33.90;24.97;;;19.10;99.90;;;;;;5114698;28;20186;-49
2023/08/26 00:09:52;;;;;;;33.07;25.23;;;19.10;99.90;;;;;;5114734;28;20529;-49
2023/08/26 00:12:17;;;;;;;33.30;26.50;;;19.10;99.90;;;;;;5115021;28;20413;-50
2023/08/26 00:14:43;;;;;;;32.20;24.50;;;19.00;99.90;;;;;;5114740;28;20188;-51
2023/08/26 00:17:09;;;;;;;36.27;25.10;;;19.00;99.90;;;;;;5115078;28;20194;-49
2023/08/26 00:19:34;;;;;;;35.43;26.20;;;19.00;99.90;;;;;;5114662;28;20219;-50
2023/08/26 00:22:00;;;;;;;36.23;25.30;;;19.00;99.90;;;;;;5113843;28;20236;-49
2023/08/26 00:24:26;;;;;;;33.40;25.40;;;19.00;99.90;;;;;;5114491;28;20181;-49
2023/08/26 00:26:52;;;;;;;32.97;24.50;;;19.00;99.90;;;;;;5114384;28;20536;-49
2023/08/26 00:29:17;;;;;;;31.93;25.07;;;18.90;99.90;;;;;;5114665;28;20274;-49
2023/08/26 00:31:43;;;;;;;34.80;25.13;;;18.90;99.90;;;;;;5113588;28;20196;-50
2023/08/26 00:34:08;;;;;;;33.77;25.93;;;18.80;99.90;;;;;;5114261;28;20167;-49
2023/08/26 00:36:34;;;;;;;32.03;23.40;;;18.80;99.90;;;;;;5114487;28;20209;-49
2023/08/26 00:39:00;;;;;;;30.90;22.43;;;18.80;99.90;;;;;;5114096;28;20217;-49
2023/08/26 00:41:26;;;;;;;32.07;24.50;;;18.80;99.90;;;;;;5114198;28;20509;-50
2023/08/26 00:43:51;;;;;;;35.67;25.77;;;18.80;99.90;;;;;;5114159;28;20415;-50
2023/08/26 00:46:17;;;;;;;37.07;26.60;;;18.80;99.90;;;;;;5114226;28;20497;-50
2023/08/26 00:48:43;;;;;;;31.97;23.70;;;18.80;99.90;;;;;;5114574;28;20211;-50
2023/08/26 00:51:10;;;;;;;39.60;27.07;;;18.70;99.90;;;;;;5114527;28;20421;-49
2023/08/26 00:53:36;;;;;;;30.70;22.20;;;18.80;99.90;;;;;;5114347;28;20424;-49
2023/08/26 00:56:01;;;;;;;36.17;27.57;;;18.70;99.90;;;;;;5114072;28;20416;-50
2023/08/26 00:58:28;;;;;;;34.33;24.87;;;18.80;99.90;;;;;;5114377;28;20222;-49
2023/08/26 01:00:54;;;;;;;41.10;28.57;;;18.70;99.90;;;;;;5113843;28;20195;-49
2023/08/26 01:03:20;;;;;;;34.87;25.87;;;18.70;99.90;;;;;;5114282;28;20421;-50
2023/08/26 01:05:46;;;;;;;40.07;26.43;;;18.70;99.90;;;;;;5113954;28;20248;-49
2023/08/26 01:08:12;;;;;;;41.73;28.43;;;18.70;99.90;;;;;;5114352;28;20445;-49
2023/08/26 01:11:07;;;;;;;31.23;22.17;;;18.60;99.90;;;;;;5114281;28;20191;-50
2023/08/26 01:14:14;;;;;;;39.27;28.10;;;18.70;99.90;;;;;;5114297;28;20459;-49
2023/08/26 01:16:40;;;;;;;43.37;29.80;;;18.60;99.90;;;;;;5113868;28;20412;-51
2023/08/26 01:19:15;;;;;;;38.67;27.80;;;18.70;99.90;;;;;;5113763;28;20474;-50
2023/08/26 01:21:46;;;;;;;37.53;26.20;;;18.60;99.90;;;;;;5114044;28;20461;-49
2023/08/26 01:24:12;;;;;;;40.87;28.67;;;18.60;99.90;;;;;;5114387;28;20425;-49
2023/08/26 01:26:37;;;;;;;33.47;23.60;;;18.60;99.90;;;;;;5114177;28;20417;-49
2023/08/26 01:29:03;;;;;;;50.00;33.00;;;18.60;99.90;;;;;;5114381;28;20577;-49
2023/08/26 01:31:31;;;;;;;32.30;24.67;;;18.70;99.90;;;;;;5114040;28;20173;-50
2023/08/26 01:34:00;;;;;;;33.50;24.13;;;18.70;99.90;;;;;;5113725;28;20186;-49
2023/08/26 01:36:28;;;;;;;41.27;28.77;;;18.70;99.90;;;;;;5113702;28;20415;-50
2023/08/26 01:38:56;;;;;;;48.27;30.87;;;18.70;99.90;;;;;;5113729;28;20468;-49
2023/08/26 01:41:22;;;;;;;52.20;33.93;;;18.70;99.90;;;;;;5113504;28;20421;-49
2023/08/26 01:43:50;;;;;;;35.67;26.37;;;18.70;99.90;;;;;;5117307;28;20431;-49
2023/08/26 01:46:16;;;;;;;51.80;34.10;;;18.70;99.90;;;;;;5117806;28;20415;-50
2023/08/26 01:48:42;;;;;;;37.67;27.00;;;18.70;99.90;;;;;;5117574;28;20455;-50
2023/08/26 01:51:08;;;;;;;35.87;24.13;;;18.70;99.90;;;;;;5117428;28;20415;-50
2023/08/26 01:53:34;;;;;;;38.70;28.60;;;18.70;99.90;;;;;;5117212;28;20411;-49
2023/08/26 01:55:59;;;;;;;47.80;32.93;;;18.70;99.90;;;;;;5116497;28;20413;-50
2023/08/26 01:58:25;;;;;;;31.27;24.13;;;18.70;99.90;;;;;;5117279;28;20210;-50
2023/08/26 02:00:50;;;;;;;38.07;27.93;;;18.70;99.90;;;;;;5117407;28;20620;-50
2023/08/26 02:03:16;;;;;;;38.87;26.60;;;18.80;99.90;;;;;;5116540;28;20189;-49
2023/08/26 02:05:41;;;;;;;38.03;26.90;;;18.80;99.90;;;;;;5116677;28;20268;-50
2023/08/26 02:08:07;;;;;;;49.83;33.77;;;18.70;99.90;;;;;;5116437;28;20176;-51
2023/08/26 02:10:33;;;;;;;44.30;31.70;;;18.70;99.90;;;;;;5116458;28;20207;-51
2023/08/26 02:12:58;;;;;;;36.57;27.17;;;18.70;99.90;;;;;;5116984;28;20182;-52
2023/08/26 02:15:24;;;;;;;54.50;36.33;;;18.70;99.90;;;;;;5117641;28;20184;-49
2023/08/26 02:17:49;;;;;;;46.63;31.43;;;18.60;99.90;;;;;;5117105;28;20679;-49
2023/08/26 02:20:15;;;;;;;36.17;25.30;;;18.70;99.90;;;;;;5116933;28;20180;-49
2023/08/26 02:22:40;;;;;;;44.70;31.80;;;18.70;99.90;;;;;;5116235;28;20691;-49
2023/08/26 02:25:07;;;;;;;45.07;30.20;;;18.70;99.90;;;;;;5117162;28;20178;-50
2023/08/26 02:27:33;;;;;;;53.90;35.87;;;18.60;99.90;;;;;;5117055;28;20239;-49
2023/08/26 02:29:58;;;;;;;47.27;31.70;;;18.70;99.90;;;;;;5117216;28;20409;-49
2023/08/26 02:32:24;;;;;;;59.00;39.50;;;18.70;99.90;;;;;;5117182;28;20179;-49
2023/08/26 02:34:50;;;;;;;57.30;38.37;;;18.60;99.90;;;;;;5116750;28;20269;-50
2023/08/26 02:37:15;;;;;;;55.43;37.20;;;18.70;99.90;;;;;;5116961;28;20176;-49
2023/08/26 02:39:41;;;;;;;54.97;35.63;;;18.70;99.90;;;;;;5116754;28;20214;-50
2023/08/26 02:42:06;;;;;;;51.57;35.90;;;18.70;99.90;;;;;;5116342;28;20274;-49
2023/08/26 02:44:32;;;;;;;60.60;39.47;;;18.70;99.90;;;;;;5117022;28;20657;-49
2023/08/26 02:46:57;;;;;;;58.43;37.83;;;18.60;99.90;;;;;;5116682;28;20184;-49
2023/08/26 02:49:23;;;;;;;65.17;41.30;;;18.60;99.90;;;;;;5117019;28;20236;-50
2023/08/26 02:51:48;;;;;;;50.10;33.30;;;18.60;99.90;;;;;;5116751;28;20189;-49
2023/08/26 02:54:14;;;;;;;65.40;40.63;;;18.70;99.90;;;;;;5115113;28;20189;-50
2023/08/26 02:56:40;;;;;;;53.50;36.83;;;18.70;99.90;;;;;;5116207;28;20181;-49
2023/08/26 02:59:05;;;;;;;56.70;36.47;;;18.70;99.90;;;;;;5097778;28;20229;-49
2023/08/26 03:01:31;;;;;;;53.20;35.27;;;18.70;99.90;;;;;;5116346;28;20183;-49
2023/08/26 03:03:57;;;;;;;59.87;38.40;;;18.60;99.90;;;;;;5116524;28;20652;-49
2023/08/26 03:06:23;;;;;;;65.40;40.80;;;18.70;99.90;;;;;;5116216;28;20192;-49
2023/08/26 03:08:49;;;;;;;51.27;34.57;;;18.70;99.90;;;;;;5116073;28;20506;-50
2023/08/26 03:11:14;;;;;;;60.73;38.13;;;18.70;99.90;;;;;;5116495;28;20189;-49
2023/08/26 03:13:40;;;;;;;68.07;41.90;;;18.70;99.90;;;;;;5115924;28;20800;-48
2023/08/26 03:16:10;;;;;;;71.63;39.93;;;18.70;99.90;;;;;;5115772;28;20562;-49
2023/08/26 03:18:39;;;;;;;51.77;35.33;;;18.70;99.90;;;;;;5115824;28;20210;-50
2023/08/26 03:21:06;;;;;;;58.70;39.10;;;18.80;99.90;;;;;;5115813;28;20411;-50
2023/08/26 03:23:32;;;;;;;45.07;32.67;;;18.80;99.90;;;;;;5115977;28;20469;-50
2023/08/26 03:25:58;;;;;;;60.60;40.57;;;18.80;99.90;;;;;;5115919;28;20415;-50
2023/08/26 03:28:23;;;;;;;56.97;38.70;;;18.80;99.90;;;;;;5115484;28;20428;-49
2023/08/26 03:30:49;;;;;;;55.70;36.00;;;18.80;99.90;;;;;;5115990;28;20218;-50
2023/08/26 03:33:15;;;;;;;50.07;34.27;;;18.80;99.90;;;;;;5115954;28;20210;-49
2023/08/26 03:35:40;;;;;;;58.13;37.00;;;18.80;99.90;;;;;;5115428;28;20210;-49
2023/08/26 03:38:07;;;;;;;62.57;38.33;;;18.80;99.90;;;;;;5115474;28;20223;-49
2023/08/26 03:40:33;;;;;;;55.50;37.10;;;18.80;99.90;;;;;;5115196;28;20218;-49
2023/08/26 03:43:00;;;;;;;57.17;36.70;;;18.80;99.90;;;;;;5115507;28;20450;-49
2023/08/26 03:45:26;;;;;;;66.23;40.00;;;18.80;99.90;;;;;;5115322;28;20186;-49
2023/08/26 03:47:51;;;;;;;65.53;37.03;;;18.80;99.90;;;;;;5115549;28;20462;-49
2023/08/26 03:50:17;;;;;;;56.07;35.93;;;18.80;99.90;;;;;;5115307;28;20408;-49
2023/08/26 03:52:43;;;;;;;62.60;39.40;;;18.80;99.90;;;;;;5115101;28;20217;-49
2023/08/26 03:55:09;;;;;;;49.40;33.50;;;18.80;99.90;;;;;;5115078;28;20182;-49
2023/08/26 03:57:34;;;;;;;59.10;37.00;;;18.70;99.90;;;;;;5115222;28;20185;-50
2023/08/26 04:00:00;;;;;;;47.10;32.47;;;18.70;99.90;;;;;;5114959;28;20550;-50
2023/08/26 04:02:25;;;;;;;55.57;35.23;;;18.80;99.90;;;;;;5115185;28;20207;-49
2023/08/26 04:04:51;;;;;;;54.30;35.13;;;18.80;99.90;;;;;;5114525;28;20177;-50
2023/08/26 04:07:17;;;;;;;55.13;37.33;;;18.80;99.90;;;;;;5114946;28;20185;-50
2023/08/26 04:09:43;;;;;;;59.23;36.97;;;18.80;99.90;;;;;;5115119;28;20181;-49
2023/08/26 04:12:08;;;;;;;63.80;38.83;;;18.80;99.90;;;;;;5114539;28;20197;-49
2023/08/26 04:14:34;;;;;;;58.73;38.77;;;18.80;99.90;;;;;;5114975;28;20897;-50
2023/08/26 04:17:03;;;;;;;61.90;38.97;;;18.80;99.90;;;;;;5114288;28;20260;-50
2023/08/26 04:19:30;;;;;;;62.23;38.60;;;18.80;99.90;;;;;;5114738;28;20245;-49
2023/08/26 04:21:57;;;;;;;56.03;34.60;;;18.80;99.90;;;;;;5114433;28;20468;-49
2023/08/26 04:24:22;;;;;;;68.40;39.47;;;18.80;99.90;;;;;;5114953;28;20730;-49
2023/08/26 04:26:48;;;;;;;73.67;40.03;;;18.70;99.90;;;;;;5114866;28;20414;-49
2023/08/26 04:29:13;;;;;;;66.90;38.27;;;18.70;99.90;;;;;;5115027;28;20237;-49
2023/08/26 04:31:39;;;;;;;45.70;29.73;;;18.70;99.90;;;;;;5114916;28;20180;-49
2023/08/26 04:34:05;;;;;;;68.07;36.90;;;18.70;99.90;;;;;;5114663;28;20182;-50
2023/08/26 04:36:30;;;;;;;69.23;39.93;;;18.70;99.90;;;;;;5114630;28;20196;-49
2023/08/26 04:38:57;;;;;;;63.77;36.40;;;18.80;99.90;;;;;;5114456;28;20218;-49
2023/08/26 04:41:23;;;;;;;68.47;36.43;;;18.80;99.90;;;;;;5114394;28;20616;-49
2023/08/26 04:43:49;;;;;;;66.13;38.17;;;18.80;99.90;;;;;;5114688;28;20492;-49
2023/08/26 04:46:15;;;;;;;66.37;35.73;;;18.90;99.90;;;;;;5114753;28;20417;-50
2023/08/26 04:48:41;;;;;;;70.20;37.53;;;18.80;99.90;;;;;;5114596;28;20422;-49
2023/08/26 04:51:06;;;;;;;64.20;36.77;;;18.90;99.90;;;;;;5114581;28;20191;-49
2023/08/26 04:53:32;;;;;;;65.00;36.63;;;18.90;99.90;;;;;;5114095;28;20174;-50
2023/08/26 04:55:57;;;;;;;58.17;35.03;;;18.90;99.90;;;;;;5114156;28;20186;-49
2023/08/26 04:58:23;;;;;;;56.27;32.47;;;18.90;99.90;;;;;;5114185;28;20568;-49
2023/08/26 05:00:49;;;;;;;60.60;35.47;;;18.90;99.90;;;;;;5113783;28;20580;-49
2023/08/26 05:03:14;;;;;;;63.23;33.30;;;18.90;99.90;;;;;;5114281;28;20213;-49
2023/08/26 05:05:41;;;;;;;56.07;31.83;;;18.80;99.90;;;;;;5114277;28;20179;-49
2023/08/26 05:08:08;;;;;;;51.03;29.57;;;18.80;99.90;;;;;;5114429;28;20238;-49
2023/08/26 05:10:36;;;;;;;48.37;27.17;;;18.80;99.90;;;;;;5114315;28;20407;-49
2023/08/26 05:13:02;;;;;;;43.17;25.50;;;18.80;99.90;;;;;;5114293;28;20414;-48
2023/08/26 05:15:29;;;;;;;47.10;26.50;;;18.80;99.90;;;;;;5113793;28;20409;-49
2023/08/26 05:17:54;;;;;;;38.33;25.00;;;18.80;99.90;;;;;;5115828;28;20428;-50
2023/08/26 05:20:20;;;;;;;46.63;25.70;;;18.80;99.90;;;;;;5117950;28;20408;-49
2023/08/26 05:22:46;;;;;;;43.97;26.43;;;18.80;99.90;;;;;;5118198;28;20265;-49
2023/08/26 05:25:11;;;;;;;43.33;26.70;;;18.80;99.90;;;;;;5117709;28;20175;-50
2023/08/26 05:27:37;;;;;;;38.10;25.07;;;18.80;99.90;;;;;;5117786;28;20233;-50
2023/08/26 05:30:04;;;;;;;38.80;24.33;;;18.80;99.90;;;;;;5118129;28;20193;-49
2023/08/26 05:32:29;;;;;;;39.80;24.33;;;18.80;99.90;;;;;;5117797;28;20183;-49
2023/08/26 05:34:55;;;;;;;40.27;24.03;;;18.80;99.90;;;;;;5118029;28;20407;-49
2023/08/26 05:37:20;;;;;;;36.77;24.97;;;18.80;99.90;;;;;;5117699;28;20490;-49
2023/08/26 05:39:47;;;;;;;35.60;23.70;;;18.90;99.90;;;;;;5117752;28;20312;-49
2023/08/26 05:42:13;;;;;;;41.17;25.17;;;18.90;99.90;;;;;;5117903;28;20833;-49
2023/08/26 05:44:39;;;;;;;36.63;23.30;;;19.00;99.90;;;;;;5117769;28;20182;-49
2023/08/26 05:47:04;;;;;;;36.70;24.20;;;19.00;99.90;;;;;;5117797;28;20188;-49
2023/08/26 05:49:30;;;;;;;37.90;26.10;;;19.00;99.90;;;;;;5117765;28;20433;-49
2023/08/26 05:51:56;;;;;;;43.27;27.13;;;19.00;99.90;;;;;;5117913;28;20181;-49
2023/08/26 05:54:21;;;;;;;38.73;24.97;;;19.00;99.90;;;;;;5118089;28;20260;-49
2023/08/26 05:56:47;;;;;;;33.47;22.80;;;19.00;99.90;;;;;;5117713;28;20175;-49
2023/08/26 05:59:13;;;;;;;35.33;24.13;;;19.00;99.90;;;;;;5117853;28;20737;-49
2023/08/26 06:01:38;;;;;;;35.47;24.50;;;19.10;99.90;;;;;;5117426;28;20271;-49
2023/08/26 06:04:04;;;;;;;38.30;25.63;;;19.00;99.90;;;;;;5117825;28;20236;-49
2023/08/26 06:06:30;;;;;;;41.43;26.63;;;19.10;60.90;;;;;;5117684;28;20591;-51
2023/08/26 06:08:56;;;;;;;40.23;26.30;;;19.10;44.20;;;;;;5117812;28;20646;-49
2023/08/26 06:11:23;;;;;;;37.93;24.83;;;19.10;1.90;;;;;;5117602;28;20185;-49
2023/08/26 06:13:49;;;;;;;37.50;24.10;;;19.00;1.00;;;;;;5117128;28;20964;-48
2023/08/26 06:16:19;;;;;;;34.70;22.57;;;19.00;1.00;;;;;;5116997;28;20516;-49
2023/08/26 06:18:45;;;;;;;34.17;25.07;;;18.90;1.00;;;;;;5117008;28;20216;-49
2023/08/26 06:21:11;;;;;;;35.17;23.63;;;19.00;1.00;;;;;;5116885;28;20540;-49
2023/08/26 06:23:36;;;;;;;31.23;20.60;;;19.10;1.00;;;;;;5117440;28;20879;-49
2023/08/26 06:26:02;;;;;;;32.63;21.70;;;19.10;1.00;;;;;;5117142;28;20716;-49
2023/08/26 06:28:28;;;;;;;30.63;21.93;;;19.10;1.00;;;;;;5117008;28;20554;-49
2023/08/26 06:31:00;;;;;;;27.67;20.53;;;19.10;1.00;;;;;;5116971;28;20541;-49
2023/08/26 06:33:27;;;;;;;29.60;20.00;;;19.10;1.00;;;;;;5116908;28;20188;-49
2023/08/26 06:35:53;;;;;;;29.83;19.20;;;19.00;1.00;;;;;;5116649;28;20422;-49
2023/08/26 06:38:19;;;;;;;25.17;18.50;;;19.00;99.90;;;;;;5116740;28;20800;-49
2023/08/26 06:40:56;;;;;;;29.87;17.93;;;19.00;99.90;;;;;;5116331;28;20500;-49
2023/08/26 06:43:22;;;;;;;22.70;17.20;;;19.10;99.90;;;;;;5116586;28;20617;-49
2023/08/26 06:45:47;;;;;;;24.13;16.60;;;19.10;1.00;;;;;;5116707;28;20516;-51
2023/08/26 06:48:14;;;;;;;20.40;16.27;;;19.30;1.00;;;;;;5116319;28;20820;-49
2023/08/26 06:50:40;;;;;;;21.80;16.00;;;19.40;99.90;;;;;;5116508;28;20550;-50
2023/08/26 06:53:06;;;;;;;20.40;14.87;;;19.50;1.00;;;;;;5116626;28;20458;-49
2023/08/26 06:55:31;;;;;;;21.30;13.30;;;19.60;1.00;;;;;;5115906;28;20484;-50
2023/08/26 06:57:57;;;;;;;15.30;11.70;;;19.80;1.00;;;;;;5116067;28;20261;-49
2023/08/26 07:00:23;;;;;;;19.03;11.77;;;20.10;99.90;;;;;;5116262;28;20179;-49
2023/08/26 07:02:48;;;;;;;16.00;11.30;;;20.40;99.90;;;;;;5116261;28;20655;-49
2023/08/26 07:05:14;;;;;;;13.90;10.07;;;20.80;99.90;;;;;;5116415;28;20183;-51
2023/08/26 07:07:40;;;;;;;17.17;9.90;;;21.10;99.90;;;;;;5116245;28;20209;-49
2023/08/26 07:10:06;;;;;;;13.23;8.90;;;21.20;83.80;;;;;;5115977;28;20418;-49
2023/08/26 07:12:32;;;;;;;13.97;8.40;;;21.20;60.80;;;;;;5116088;28;20210;-50
2023/08/26 07:14:57;;;;;;;13.27;9.57;;;21.30;18.00;;;;;;5115764;28;20434;-50
2023/08/26 07:17:23;;;;;;;15.87;9.10;;;21.00;1.00;;;;;;5116283;28;20241;-50
2023/08/26 07:19:49;;;;;;;11.73;8.90;;;20.70;1.00;;;;;;5097539;28;20212;-50
2023/08/26 07:22:14;;;;;;;16.10;9.97;;;20.80;88.20;;;;;;5116191;28;20324;-50
2023/08/26 07:24:40;;;;;;;12.93;8.23;;;21.10;35.10;;;;;;5115916;28;20169;-50
2023/08/26 07:27:05;;;;;;;11.50;8.43;;;21.30;21.90;;;;;;5116026;28;20176;-49
2023/08/26 07:29:33;;;;;;;10.47;8.90;;;21.30;13.00;;;;;;5115709;28;20187;-50
2023/08/26 07:31:58;;;;;;;9.20;7.20;;;21.40;13.70;;;;;;5116092;28;20177;-49
2023/08/26 07:34:24;;;;;;;13.00;9.30;;;21.40;3.30;;;;;;5116053;28;20518;-50
2023/08/26 07:36:49;;;;;;;13.07;8.67;;;21.30;1.00;;;;;;5115646;28;20176;-50
2023/08/26 07:39:15;;;;;;;13.37;10.17;;;20.90;1.00;;;;;;5115809;28;20212;-49
2023/08/26 07:41:40;;;;;;;12.17;8.00;;;20.70;1.00;;;;;;5115533;28;20173;-50
2023/08/26 07:44:06;;;;;;;14.73;8.73;;;20.90;62.50;;;;;;5115960;28;20187;-50
2023/08/26 07:46:31;;;;;;;12.57;8.00;;;21.10;12.10;;;;;;5115456;28;20180;-49
2023/08/26 07:48:57;;;;;;;8.80;6.87;;;21.40;1.00;;;;;;5115136;28;20543;-49
2023/08/26 07:51:23;;;;;;;9.27;6.13;;;21.10;1.00;;;;;;5114866;28;20181;-49
2023/08/26 07:53:48;;;;;;;9.67;7.00;;;20.70;1.00;;;;;;5115205;28;20199;-50
2023/08/26 07:56:14;;;;;;;17.30;6.60;;;20.70;1.00;;;;;;5114843;28;20169;-50
2023/08/26 07:58:39;;;;;;;7.17;5.57;;;20.80;1.00;;;;;;5115158;28;20215;-50
2023/08/26 08:01:05;;;;;;;9.97;5.97;;;20.90;1.00;;;;;;5115096;28;20204;-49
2023/08/26 08:03:30;;;;;;;7.50;5.03;;;20.70;1.00;;;;;;5115304;28;20177;-50
2023/08/26 08:05:56;;;;;;;8.10;5.40;;;20.50;1.00;;;;;;5115256;28;20188;-49
2023/08/26 08:08:22;;;;;;;8.97;4.80;;;20.40;1.00;;;;;;5115159;28;20187;-49
2023/08/26 08:10:49;;;;;;;6.90;5.07;;;20.50;1.00;;;;;;5114670;28;20207;-50
2023/08/26 08:13:15;;;;;;;5.10;4.40;;;20.60;1.00;;;;;;5115243;28;20194;-50
2023/08/26 08:15:41;;;;;;;5.00;4.30;;;20.80;1.00;;;;;;5115147;28;20508;-49
2023/08/26 08:18:07;;;;;;;8.57;4.10;;;21.00;1.00;;;;;;5115004;28;20612;-49
2023/08/26 08:20:32;;;;;;;8.20;4.10;;;21.20;1.00;;;;;;5115017;28;20204;-49
2023/08/26 08:22:58;;;;;;;10.00;4.53;;;21.40;1.00;;;;;;5115042;28;20253;-49
2023/08/26 08:25:26;;;;;;;6.27;4.97;;;21.40;1.00;;;;;;5114351;28;20184;-50
2023/08/26 08:27:52;;;;;;;4.93;4.20;;;21.10;1.00;;;;;;5114671;28;20234;-49
2023/08/26 08:30:18;;;;;;;16.93;5.00;;;20.90;1.00;;;;;;5114633;28;20423;-50
2023/08/26 08:32:43;;;;;;;9.33;4.30;;;20.70;1.00;;;;;;5114578;28;20928;-50
2023/08/26 08:35:10;;;;;;;6.30;4.60;;;20.50;1.00;;;;;;5114481;28;20232;-49
2023/08/26 08:37:36;;;;;;;7.60;4.30;;;20.30;1.00;;;;;;5114506;28;20280;-50
2023/08/26 08:40:01;;;;;;;11.13;5.73;;;20.20;1.00;;;;;;5114706;28;20991;-49
2023/08/26 08:42:30;;;;;;;6.67;4.40;;;20.10;1.00;;;;;;5114418;28;20176;-49
2023/08/26 08:44:56;;;;;;;8.80;4.63;;;19.90;1.00;;;;;;5114325;28;20707;-49
2023/08/26 08:47:22;;;;;;;8.13;4.23;;;19.90;1.00;;;;;;5114616;28;20508;-49
2023/08/26 08:49:48;;;;;;;4.80;3.97;;;19.80;1.00;;;;;;5114373;28;20504;-49
2023/08/26 08:52:15;;;;;;;13.20;4.70;;;19.80;1.00;;;;;;5113504;28;20195;-49
2023/08/26 08:54:44;;;;;;;6.30;4.60;;;20.00;1.00;;;;;;5114300;28;20413;-49
2023/08/26 08:57:13;;;;;;;5.83;3.90;;;20.00;1.00;;;;;;5114362;28;20527;-49
2023/08/26 08:59:40;;;;;;;6.13;4.17;;;20.20;1.00;;;;;;5114215;28;20619;-50
2023/08/26 09:02:05;;;;;;;8.80;4.50;;;20.30;1.00;;;;;;5114241;28;20894;-50
2023/08/26 09:04:32;;;;;;;7.20;4.30;;;20.30;1.00;;;;;;5114401;28;20421;-49
2023/08/26 09:06:57;;;;;;;5.17;4.20;;;20.20;1.00;;;;;;5114175;28;20681;-49
2023/08/26 09:09:23;;;;;;;4.30;3.87;;;20.20;1.00;;;;;;5114682;28;20446;-49
2023/08/26 09:11:50;;;;;;;7.70;4.30;;;20.20;1.00;;;;;;5113986;28;20167;-49
2023/08/26 09:14:16;;;;;;;8.43;3.57;;;20.20;1.00;;;;;;5114214;28;20586;-49
2023/08/26 09:16:43;;;;;;;9.97;3.67;;;20.20;1.00;;;;;;5113952;28;20457;-49
2023/08/26 09:19:10;;;;;;;7.90;4.40;;;20.30;1.00;;;;;;5114278;28;20213;-50
2023/08/26 09:21:46;;;;;;;5.60;3.63;;;20.20;1.00;;;;;;5114082;28;20465;-51
2023/08/26 09:24:15;;;;;;;9.87;3.60;;;20.30;1.00;;;;;;5114286;28;20469;-50
2023/08/26 09:26:43;;;;;;;6.10;3.20;;;20.30;1.00;;;;;;5114405;28;20507;-51
2023/08/26 09:29:19;;;;;;;7.03;4.00;;;20.40;1.00;;;;;;5114005;28;20410;-50
2023/08/26 09:31:48;;;;;;;3.47;2.90;;;20.40;1.00;;;;;;5114119;28;20406;-50
2023/08/26 09:34:24;;;;;;;6.50;3.30;;;20.50;1.00;;;;;;5114077;28;20418;-50
2023/08/26 09:36:49;;;;;;;4.97;3.37;;;20.60;1.00;;;;;;5113667;28;20978;-50
2023/08/26 09:39:15;;;;;;;6.37;3.03;;;20.70;1.00;;;;;;5113868;28;20462;-50
2023/08/26 09:41:45;;;;;;;6.40;3.17;;;20.90;1.00;;;;;;5114215;28;20180;-50
2023/08/26 09:44:12;;;;;;;11.53;3.37;;;20.90;1.00;;;;;;5113853;28;20925;-51
2023/08/26 09:46:39;;;;;;;4.00;3.47;;;20.90;1.00;;;;;;5113494;28;20425;-49
2023/08/26 09:49:05;;;;;;;7.23;3.23;;;20.90;1.00;;;;;;5113921;28;20418;-50
2023/08/26 09:51:32;;;;;;;2.63;2.43;;;21.00;1.00;;;;;;5113896;28;20764;-49
2023/08/26 09:53:59;;;;;;;5.30;2.60;;;20.90;1.00;;;;;;5113502;28;20438;-50
2023/08/26 09:56:26;;;;;;;2.60;2.40;;;20.70;1.00;;;;;;5113715;28;20791;-50
2023/08/26 09:58:53;;;;;;;4.90;2.50;;;20.70;1.00;;;;;;5113635;28;20925;-50
2023/08/26 10:01:20;;;;;;;5.00;2.60;;;20.80;1.00;;;;;;5114022;28;20418;-50
2023/08/26 10:03:53;;;;;;;2.63;2.43;;;20.80;1.00;;;;;;5115547;28;20633;-49
2023/08/26 10:06:23;;;;;;;3.80;2.30;;;20.90;1.00;;;;;;5117751;28;20491;-51
2023/08/26 10:08:55;;;;;;;5.20;2.63;;;21.10;1.00;;;;;;5117231;28;20423;-51
2023/08/26 10:11:22;;;;;;;8.97;2.40;;;21.20;1.00;;;;;;5117511;28;20430;-50
2023/08/26 10:13:50;;;;;;;4.03;2.30;;;21.20;1.00;;;;;;5116949;28;20421;-51
2023/08/26 10:16:19;;;;;;;3.50;2.37;;;21.30;1.00;;;;;;5117281;28;20429;-49
2023/08/26 10:18:57;;;;;;;2.47;2.27;;;21.20;1.00;;;;;;5117174;28;20475;-51
2023/08/26 10:21:24;;;;;;;6.03;2.50;;;21.30;1.00;;;;;;5117132;28;20485;-50
2023/08/26 10:23:49;;;;;;;3.63;2.60;;;21.30;1.00;;;;;;5117460;28;20942;-49
2023/08/26 10:26:18;;;;;;;2.70;2.33;;;21.20;1.00;;;;;;5117107;28;20441;-51
2023/08/26 10:28:45;;;;;;;4.60;2.57;;;21.20;1.00;;;;;;5117247;28;20196;-50
2023/08/26 10:31:14;;;;;;;4.70;2.50;;;21.30;1.00;;;;;;5117204;28;20468;-50
2023/08/26 10:34:08;;;;;;;2.30;2.10;;;21.20;1.00;;;;;;5116694;28;20771;-50
2023/08/26 10:36:38;;;;;;;3.70;2.30;;;21.10;1.00;;;;;;5115705;28;21122;-49
2023/08/26 10:39:10;;;;;;;5.00;2.23;;;21.10;1.00;;;;;;5114401;28;20569;-50
2023/08/26 10:41:36;;;;;;;1.93;1.50;;;21.20;1.00;;;;;;5115001;28;20909;-49
2023/08/26 10:44:03;;;;;;;1.60;1.50;;;21.50;1.00;;;;;;5114944;28;20518;-49
2023/08/26 10:46:37;;;;;;;4.40;2.10;;;21.90;1.00;;;;;;5114204;28;20628;-50
2023/08/26 10:49:03;;;;;;;4.30;2.00;;;22.20;1.00;;;;;;5115760;28;20421;-49
2023/08/26 10:51:35;;;;;;;2.47;1.63;;;22.40;1.00;;;;;;5116065;28;20421;-50
2023/08/26 10:54:03;;;;;;;1.90;1.70;;;22.60;1.00;;;;;;5116232;28;20403;-50
2023/08/26 10:56:33;;;;;;;4.47;2.23;;;22.90;1.00;;;;;;5116063;28;20940;-51
2023/08/26 10:59:03;;;;;;;1.90;1.80;;;22.90;1.00;;;;;;5116356;28;20505;-50
2023/08/26 11:01:36;;;;;;;2.43;1.80;;;23.20;1.00;;;;;;5116581;28;20418;-49
2023/08/26 11:04:04;;;;;;;2.37;1.87;;;23.60;1.00;;;;;;5116646;28;20736;-50
2023/08/26 11:06:37;;;;;;;2.60;1.67;;;23.80;1.00;;;;;;5116268;28;20902;-50
2023/08/26 11:09:03;;;;;;;3.10;1.63;;;23.40;1.00;;;;;;5116105;28;20863;-50
2023/08/26 11:11:29;;;;;;;2.77;1.73;;;23.10;1.00;;;;;;5116211;28;20808;-50
2023/08/26 11:13:54;;;;;;;3.23;1.50;;;23.10;1.00;;;;;;5115793;28;20417;-51
2023/08/26 11:16:22;;;;;;;2.60;1.83;;;23.40;1.00;;;;;;5115323;28;20177;-50
2023/08/26 11:18:50;;;;;;;2.77;1.70;;;23.30;1.00;;;;;;5115679;28;20200;-49
2023/08/26 11:21:16;;;;;;;4.70;1.60;;;23.30;1.00;;;;;;5115938;28;20415;-51
2023/08/26 11:23:41;;;;;;;5.67;1.80;;;23.10;1.00;;;;;;5115606;28;20403;-48
2023/08/26 11:26:07;;;;;;;1.70;1.40;;;23.00;1.00;;;;;;5115443;28;20271;-50
2023/08/26 11:28:33;;;;;;;2.40;1.40;;;22.90;1.00;;;;;;5115921;28;20184;-51
2023/08/26 11:31:00;;;;;;;1.87;1.47;;;23.20;1.00;;;;;;5115760;28;20407;-50
2023/08/26 11:33:28;;;;;;;3.00;1.53;;;23.60;1.00;;;;;;5116349;28;20234;-50
2023/08/26 11:35:53;;;;;;;2.73;1.60;;;23.90;1.00;;;;;;5116003;28;20408;-50
2023/08/26 11:38:19;;;;;;;5.47;2.10;;;24.30;1.00;;;;;;5115959;28;20978;-50
2023/08/26 11:40:46;;;;;;;2.53;1.50;;;24.30;1.00;;;;;;5115782;28;20526;-49
2023/08/26 11:43:13;;;;;;;4.47;1.80;;;23.90;1.00;;;;;;5115280;28;20430;-49
2023/08/26 11:45:41;;;;;;;4.60;1.77;;;23.50;1.00;;;;;;5114929;28;20505;-50
2023/08/26 11:48:12;;;;;;;2.17;1.50;;;23.00;1.00;;;;;;5115212;28;20411;-50
2023/08/26 11:50:41;;;;;;;3.53;1.53;;;22.80;1.00;;;;;;5115078;28;20441;-50
2023/08/26 11:53:07;;;;;;;3.57;1.87;;;22.90;1.00;;;;;;5115346;28;20418;-50
2023/08/26 11:55:34;;;;;;;5.00;2.10;;;23.00;1.00;;;;;;5115226;28;20415;-49
2023/08/26 11:58:00;;;;;;;2.43;1.93;;;23.00;1.00;;;;;;5115357;28;20467;-50
2023/08/26 12:00:27;;;;;;;5.60;1.97;;;23.50;1.00;;;;;;5115116;28;20507;-49
2023/08/26 12:02:55;;;;;;;8.60;1.90;;;24.40;1.00;;;;;;5115463;28;20402;-49
2023/08/26 12:05:21;;;;;;;5.33;2.10;;;25.00;1.00;;;;;;5115054;28;20736;-50
2023/08/26 12:07:52;;;;;;;3.40;2.17;;;25.50;1.00;;;;;;5114849;28;20418;-50
2023/08/26 12:10:18;;;;;;;4.07;1.93;;;25.30;1.00;;;;;;5114937;28;20165;-50
2023/08/26 12:12:45;;;;;;;3.50;2.03;;;24.50;1.00;;;;;;5115383;28;20474;-49
2023/08/26 12:15:13;;;;;;;4.60;2.00;;;23.90;1.00;;;;;;5115023;28;20418;-50
2023/08/26 12:17:58;;;;;;;2.80;1.87;;;23.30;1.00;;;;;;5114777;28;20433;-50
2023/08/26 12:20:25;;;;;;;2.53;2.00;;;23.20;1.00;;;;;;5114791;28;20534;-50
2023/08/26 12:22:51;;;;;;;6.57;2.17;;;23.20;1.00;;;;;;5114150;28;20892;-49
2023/08/26 12:25:25;;;;;;;5.53;2.10;;;23.60;1.00;;;;;;5113970;28;20417;-50
2023/08/26 12:27:51;;;;;;;6.00;2.20;;;23.50;1.00;;;;;;5114136;28;20413;-50
2023/08/26 12:30:19;;;;;;;4.83;2.03;;;22.90;1.00;;;;;;5113991;28;20465;-50
2023/08/26 12:32:45;;;;;;;4.17;2.20;;;22.30;1.00;;;;;;5114099;28;20403;-49
2023/08/26 12:35:11;;;;;;;5.33;2.20;;;22.10;1.00;;;;;;5113798;28;20421;-50